Latest Weather Observations for Aireys Inlet

IDV60801

Issued at 11:32 pm EST Friday 30 September 2016 (issued every 30 minutes, with the page automatically refreshed every 10 minutes)

About weather observations | Map of weather stations | Latest weather observations for VIC | Other Formats
Station Details ID: 090180 Name: AIREYS INLET Lat: -38.46 Lon: 144.09 Height: 105.0 m
Data from the previous 72 hours. | See also: Recent months at Aireys Inlet
Date/Time
EST
Temp
°C
App
Temp
°C
Dew
Point
°C
Rel
Hum
%
Delta-T
°C
Wind Press
QNH
hPa
Press
MSL
hPa
Rain since
9am
mm
Dir  Spd
km/h
Gust
km/h
Spd
kts
Gust
kts
30/11:30pm 10.2 7.6 9.3 94 0.4 NNW 13 24 7 13 - - 1.2
30/11:00pm 10.1 7.1 9.2 94 0.4 NNW 15 22 8 12 - - 1.2
30/10:30pm 10.4 7.3 9.0 91 0.7 NW 15 20 8 11 - - 1.0
30/10:00pm 10.5 8.1 8.6 88 0.9 NNW 11 17 6 9 - - 1.0
30/09:30pm 10.3 8.0 8.9 91 0.7 NNW 11 17 6 9 - - 1.0
30/09:00pm 10.1 7.8 9.0 93 0.5 NNW 11 15 6 8 - - 1.0
30/08:30pm 10.1 7.8 9.0 93 0.5 NNW 11 13 6 7 - - 1.0
30/08:00pm 10.4 8.5 9.0 91 0.7 NNW 9 13 5 7 - - 1.0
30/07:30pm 10.6 8.8 9.4 92 0.6 N 9 11 5 6 - - 1.0
30/07:00pm 11.0 9.7 9.8 92 0.6 N 7 11 4 6 - - 1.0
30/06:30pm 11.7 10.9 9.6 87 1.1 SW 4 7 2 4 - - 1.0
30/06:00pm 11.4 10.6 9.7 89 0.9 W 4 6 2 3 - - 1.0
30/05:30pm 11.7 10.7 10.3 91 0.7 SW 6 9 3 5 - - 1.0
30/05:00pm 11.3 10.5 9.7 90 0.8 SW 4 7 2 4 - - 1.0
30/04:30pm 11.5 10.2 9.8 89 0.9 W 7 11 4 6 - - 0.8
30/04:00pm 11.7 10.0 9.9 89 0.9 SW 9 15 5 8 - - 0.8
30/03:30pm 11.8 9.3 9.7 87 1.1 SW 13 20 7 11 - - 0.4
30/03:00pm 13.3 10.6 8.8 74 2.3 SSW 13 19 7 10 - - 0.0
30/02:30pm 16.3 13.7 10.8 70 2.9 SSW 15 20 8 11 - - 0.0
30/02:00pm 16.0 14.0 10.3 69 3.0 SSW 11 20 6 11 - - 0.0
30/01:30pm 15.7 13.3 10.0 69 3.0 SSW 13 19 7 10 - - 0.0
30/01:00pm 15.2 12.3 9.8 70 2.8 SSW 15 20 8 11 - - 0.0
30/12:30pm 15.1 12.8 10.3 73 2.5 SSW 13 20 7 11 - - 0.0
30/12:00pm 14.4 11.1 9.6 73 2.5 SSW 17 24 9 13 - - 0.0
30/11:30am 14.2 11.3 9.8 75 2.3 SSW 15 24 8 13 - - 0.0
30/11:00am 13.6 10.8 10.0 79 1.9 SSW 15 20 8 11 - - 0.0
30/10:30am 13.4 11.8 8.9 74 2.3 SSW 7 13 4 7 - - 0.0
30/10:00am 12.4 11.7 10.0 85 1.2 SE 4 7 2 4 - - 0.0
30/09:30am 11.4 10.5 9.3 87 1.1 SW 4 9 2 5 - - 0.0
30/09:00am 11.0 10.4 9.1 88 1.0 WNW 2 4 1 2 - - 7.6
30/08:30am 10.5 10.2 8.6 88 0.9 CALM 0 2 0 1 - - 7.6
30/08:00am 10.2 9.5 8.5 89 0.8 NNW 2 4 1 2 - - 7.6
30/07:30am 10.3 8.8 8.6 89 0.8 NNE 6 7 3 4 - - 7.6
30/07:00am 10.1 8.5 8.2 88 0.9 ENE 6 9 3 5 - - 7.6
30/06:30am 9.8 8.0 8.1 89 0.8 ENE 7 13 4 7 - - 7.6
30/06:00am 9.7 6.4 8.0 89 0.8 E 15 28 8 15 - - 7.6
30/05:30am 9.3 6.4 8.2 93 0.5 E 13 24 7 13 - - 7.6
30/05:00am 9.3 5.3 8.2 93 0.5 E 19 35 10 19 - - 7.6
30/04:30am 9.0 5.4 8.2 95 0.4 ESE 17 28 9 15 - - 7.6
30/04:00am 8.7 5.7 7.9 95 0.4 SE 13 24 7 13 - - 5.0
30/03:30am 8.6 6.4 7.8 95 0.4 SE 9 15 5 8 - - 3.4
30/03:00am 8.6 5.6 7.8 95 0.4 E 13 20 7 11 - - 1.8
30/02:30am 9.2 6.7 8.1 93 0.5 E 11 24 6 13 - - 0.8
30/02:00am 9.5 7.7 7.3 86 1.0 E 6 9 3 5 - - 0.2
30/01:30am 9.8 7.3 6.5 80 1.5 E 9 19 5 10 - - 0.2
30/01:00am 10.3 6.9 6.1 75 2.0 ENE 13 20 7 11 - - 0.2
30/12:30am 10.2 7.3 6.7 79 1.7 ENE 11 19 6 10 - - 0.2
30/12:00am 10.0 7.1 6.5 79 1.6 ENE 11 19 6 10 - - 0.2
 
Date/Time
EST
Temp
°C
App
Temp
°C
Dew
Point
°C
Rel
Hum
%
Delta-T
°C
Wind Press
QNH
hPa
Press
MSL
hPa
Rain since
9am
mm
Dir  Spd
km/h
Gust
km/h
Spd
kts
Gust
kts
29/11:30pm 10.0 7.1 6.5 79 1.6 NE 11 19 6 10 - - 0.2
29/11:00pm 9.7 7.5 6.4 80 1.5 ENE 7 15 4 8 - - 0.2
29/10:30pm 9.2 7.1 5.9 80 1.5 ENE 6 7 3 4 - - 0.2
29/10:00pm 8.3 6.1 6.1 86 1.0 NNE 7 9 4 5 - - 0.2
29/09:30pm 8.1 5.1 5.9 86 1.0 NNE 11 13 6 7 - - 0.2
29/09:00pm 8.2 5.5 5.7 84 1.1 NNE 9 13 5 7 - - 0.2
29/08:30pm 8.5 5.8 5.4 81 1.4 NE 9 15 5 8 - - 0.2
29/08:00pm 8.7 5.9 5.3 79 1.5 NE 9 11 5 6 - - 0.2
29/07:30pm 9.5 6.7 5.1 74 2.0 N 9 11 5 6 - - 0.2
29/07:00pm 9.6 7.1 4.8 72 2.2 NNW 7 11 4 6 - - 0.2
29/06:30pm 10.1 7.2 4.5 68 2.5 NNW 9 17 5 9 - - 0.2
29/06:00pm 11.0 6.6 4.5 64 2.9 NNW 17 30 9 16 - - 0.2
29/05:30pm 12.1 8.7 4.1 58 3.6 NNE 11 17 6 9 - - 0.2
29/05:00pm 12.9 7.5 4.3 56 3.9 NNE 22 33 12 18 - - 0.2
29/04:30pm 14.1 8.6 4.1 51 4.6 N 22 32 12 17 - - 0.2
29/04:00pm 15.5 11.3 3.9 46 5.4 NNW 15 30 8 16 - - 0.2
29/03:30pm 15.2 12.1 5.4 52 4.7 NNE 11 24 6 13 - - 0.2
29/03:00pm 14.7 9.6 3.2 46 5.2 N 19 32 10 17 - - 0.2
29/02:30pm 14.5 10.9 5.0 53 4.5 NNW 13 22 7 12 - - 0.2
29/02:00pm 15.2 10.0 3.7 46 5.3 N 20 37 11 20 - - 0.2
29/01:30pm 15.5 9.8 4.8 49 5.1 N 24 37 13 20 - - 0.2
29/01:00pm 14.6 8.8 4.3 50 4.8 N 24 37 13 20 - - 0.2
29/12:30pm 14.7 9.1 5.5 54 4.4 N 24 39 13 21 - - 0.2
29/12:00pm 12.6 7.7 6.9 68 2.8 N 22 39 12 21 - - 0.2
29/11:30am 13.6 8.6 6.5 62 3.4 NW 22 32 12 17 - - 0.2
29/11:00am 13.3 8.3 6.6 64 3.2 NNW 22 35 12 19 - - 0.2
29/10:30am 13.2 9.9 6.3 63 3.3 NNW 13 20 7 11 - - 0.2
29/10:00am 12.1 7.4 6.2 67 2.8 NW 20 30 11 16 - - 0.2
29/09:30am 11.4 6.1 6.9 74 2.2 NW 24 35 13 19 - - 0.2
29/09:00am 11.8 5.5 7.5 75 2.1 NNW 30 50 16 27 - - 12.8
29/08:54am 11.7 5.4 7.4 75 2.1 NW 30 50 16 27 - - 12.8
29/08:30am 11.5 6.4 7.6 77 1.9 NNW 24 39 13 21 - - 12.8
29/08:00am 10.7 5.9 7.4 80 1.6 NNW 22 35 12 19 - - 12.8
29/07:30am 10.8 5.7 7.7 81 1.5 NNW 24 43 13 23 - - 12.8
29/07:00am 11.2 6.0 7.3 77 1.9 NNW 24 41 13 22 - - 12.8
29/06:30am 11.7 7.3 7.2 74 2.2 NNW 20 32 11 17 - - 12.8
29/06:00am 12.3 8.4 9.5 83 1.4 NNW 20 35 11 19 - - 12.8
29/05:30am 12.1 7.2 10.0 87 1.1 NNE 26 39 14 21 - - 12.8
29/05:06am 12.2 6.9 9.9 86 1.2 NNE 28 48 15 26 - - 12.8
29/05:00am 12.2 7.3 9.9 86 1.2 NNE 26 41 14 22 - - 12.8
29/04:30am 12.4 7.5 10.0 85 1.2 NNE 26 41 14 22 - - 12.8
29/04:00am 12.1 6.5 10.3 89 0.9 NNE 30 43 16 23 - - 12.8
29/03:33am 11.9 6.8 10.5 91 0.7 NNE 28 46 15 25 - - 12.8
29/03:30am 11.9 6.4 10.5 91 0.7 NNE 30 46 16 25 - - 12.8
29/03:24am 11.9 6.8 10.5 91 0.7 NNE 28 48 15 26 - - 12.8
29/03:00am 11.7 6.9 10.4 92 0.7 NE 26 41 14 22 - - 12.8
29/02:30am 11.5 7.5 10.4 93 0.6 NE 22 37 12 20 - - 12.8
29/02:00am 11.4 7.0 10.3 93 0.6 NE 24 43 13 23 - - 12.0
29/01:30am 11.4 7.4 10.5 94 0.5 NNE 22 35 12 19 - - 11.2
29/01:00am 11.5 8.1 10.6 94 0.5 NE 19 32 10 17 - - 9.6
29/12:30am 11.5 7.9 10.4 93 0.6 NE 20 32 11 17 - - 7.6
29/12:00am 11.8 7.4 10.4 91 0.7 NE 24 43 13 23 - - 4.0
 
Date/Time
EST
Temp
°C
App
Temp
°C
Dew
Point
°C
Rel
Hum
%
Delta-T
°C
Wind Press
QNH
hPa
Press
MSL
hPa
Rain since
9am
mm
Dir  Spd
km/h
Gust
km/h
Spd
kts
Gust
kts
28/11:30pm 11.8 7.3 10.0 89 0.9 NE 24 41 13 22 - - 3.4
28/11:00pm 12.2 8.0 9.9 86 1.2 NE 22 32 12 17 - - 2.0
28/10:30pm 11.9 8.1 9.8 87 1.1 NE 20 33 11 18 - - 1.8
28/10:00pm 12.5 8.2 9.3 81 1.6 NE 22 39 12 21 - - 0.4
28/09:30pm 13.8 10.2 8.2 69 2.8 NNE 17 28 9 15 - - 0.0
28/09:00pm 14.2 9.9 7.7 65 3.2 NNE 20 32 11 17 - - 0.0
28/08:30pm 14.2 9.5 7.7 65 3.2 NNE 22 37 12 20 - - 0.0
28/08:00pm 14.1 9.0 7.6 65 3.2 NNE 24 43 13 23 - - 0.0
28/07:30pm 14.1 8.9 7.4 64 3.3 NNE 24 37 13 20 - - 0.0
28/07:00pm 14.1 8.9 7.4 64 3.3 NNE 24 39 13 21 - - 0.0
28/06:30pm 14.2 8.6 7.3 63 3.4 NNE 26 41 14 22 - - 0.0
28/06:00pm 14.5 9.0 7.5 63 3.5 NNE 26 39 14 21 - - 0.0
28/05:30pm 14.9 9.8 7.7 62 3.6 NNE 24 43 13 23 - - 0.0
28/05:00pm 15.4 9.9 7.7 60 3.9 NNE 26 43 14 23 - - 0.0
28/04:49pm 15.5 9.6 7.5 59 4.0 NNE 28 48 15 26 - - 0.0
28/04:30pm 15.8 10.8 8.1 60 3.9 NNE 24 39 13 21 - - 0.0
28/04:00pm 16.4 11.9 8.4 59 4.1 NNE 22 43 12 23 - - 0.0
28/03:30pm 17.1 13.0 8.5 57 4.4 NE 20 37 11 20 - - 0.0
28/03:00pm 17.2 12.3 8.4 56 4.5 NE 24 41 13 22 - - 0.0
28/02:30pm 17.8 13.4 7.2 50 5.3 NNE 20 35 11 19 - - 0.0
28/02:00pm 16.0 12.8 9.9 67 3.2 ENE 17 28 9 15 - - 0.0
28/01:30pm 16.1 12.4 8.1 59 4.1 NE 17 28 9 15 - - 0.0
28/01:00pm 18.4 15.7 8.9 54 5.0 NE 13 26 7 14 - - 0.0
28/12:30pm 18.5 15.2 7.9 50 5.4 NNE 15 28 8 15 - - 0.0
28/12:00pm 16.1 12.1 6.8 54 4.6 NNE 17 30 9 16 - - 0.0
28/11:30am 15.6 10.7 6.9 56 4.3 N 22 33 12 18 - - 0.0
28/11:00am 15.3 10.9 6.6 56 4.3 N 19 32 10 17 - - 0.0
28/10:30am 15.1 11.2 6.9 58 4.0 NNW 17 24 9 13 - - 0.0
28/10:00am 14.7 10.7 6.8 59 3.9 N 17 28 9 15 - - 0.0
28/09:30am 13.7 10.5 7.0 64 3.3 NNE 13 20 7 11 - - 0.0
28/09:00am 12.8 10.8 7.3 69 2.7 NNE 7 13 4 7 - - 2.0
28/08:30am 11.2 8.7 6.5 73 2.2 NNE 9 13 5 7 - - 2.0
28/08:00am 9.8 7.7 6.5 80 1.5 NNE 7 13 4 7 - - 2.0
28/07:30am 9.0 7.3 5.7 80 1.5 NNE 4 7 2 4 - - 2.0
28/07:00am 8.7 6.6 5.8 82 1.3 NNW 6 9 3 5 - - 2.0
28/06:30am 8.9 6.6 5.6 80 1.5 NNW 7 11 4 6 - - 2.0
28/06:00am 8.8 6.2 5.9 82 1.3 N 9 19 5 10 - - 2.0
28/05:30am 8.6 6.4 6.1 84 1.1 NW 7 13 4 7 - - 2.0
28/05:00am 8.3 4.9 6.1 86 1.0 NNW 13 20 7 11 - - 2.0
28/04:30am 8.8 5.5 6.3 84 1.2 NW 13 17 7 9 - - 2.0
28/04:00am 9.3 4.9 6.6 83 1.3 NW 19 24 10 13 - - 2.0
28/03:30am 9.6 5.0 6.7 82 1.4 NW 20 26 11 14 - - 2.0
28/03:00am 9.4 6.2 6.8 84 1.2 NW 13 20 7 11 - - 2.0
28/02:30am 9.4 7.5 6.5 82 1.4 NNE 6 9 3 5 - - 2.0
28/02:00am 10.6 8.1 6.6 76 1.9 WNW 9 17 5 9 - - 2.0
28/01:30am 10.6 6.2 6.7 77 1.8 NW 19 26 10 14 - - 2.0
28/01:00am 10.3 6.7 6.6 78 1.7 NW 15 24 8 13 - - 2.0
28/12:30am 10.4 6.5 6.9 79 1.7 NW 17 30 9 16 - - 2.0
28/12:00am 10.5 6.9 6.6 77 1.8 NW 15 24 8 13 - - 2.0

Other Formats:

Comma delimited format used in spreadsheet applications
http://www.bom.gov.au/fwo/IDV60801/IDV60801.94846.axf

JavaScript Object Notation format (JSON) in row-major order
http://www.bom.gov.au/fwo/IDV60801/IDV60801.94846.json